PWSweather.com
Personal Weather Stations
Station Observations
SEAWX98122
Seattle (greenwood), Seattle, WA 98103

Seattle (greenwood)Seattle, WA 98103

Lat: 47.6977, Lon: -122.347

Elevation: 324

Station Type: Davis Vantage Pro 2

https://www.seattleweather.org

Latest ConditionsUpdated 10:00:01 AM PST Tuesday, Nov 12, 2019
Currently Today's Max Today's Min Today's Average
Temperature 47.8°F8.8°C 48.3°F9.1°C 46.1°F7.8°C 47.1°F8.4°C
Dew Point 45.6°F7.6°C 45.6°F7.6°C 42.1°F5.6°C 43.5°F6.4°C
Winds 2.3 mph ESE3.7 kmh ESE 5.8 mph -9.3 kmh - - 1.6 mph 2.6 kmh
Wind Gusts 3.5 mph5.6 kmh 10.4 mph16.7 kmh - -
Humidity 92% 93% 80% 88%
Pressure 30.14 in1020.7 mb 30.14 in1020.7 mb 30.05 in1017.6 mb -
Precipitation - 0.14 in3.6 mm - -
Hour Temp Dew Point Humidity Winds Wind Gusts Pressure Precip Precip Rate Daily Precip Total
10:00 AM 47.8°F8.8°C 45.6°F7.6°C 92% 2.3 mph ESE3.7 kmh ESE 3.5 mph5.6 kmh 30.14 in1020.7 mb - 0.00 in0.0 mm 0.14 in3.6 mm
09:55 AM 47.8°F8.8°C 45.6°F7.6°C 92% 1.2 mph SE1.9 kmh SE 2.3 mph3.7 kmh 30.14 in1020.7 mb - 0.00 in0.0 mm 0.14 in3.6 mm
09:50 AM 47.6°F8.7°C 45.4°F7.4°C 92% Calm Calm -- 30.14 in1020.7 mb - 0.00 in0.0 mm 0.14 in3.6 mm
09:45 AM 47.4°F8.6°C 45.2°F7.3°C 92% 2.3 mph SE3.7 kmh SE 3.5 mph5.6 kmh 30.14 in1020.7 mb - 0.00 in0.0 mm 0.14 in3.6 mm
09:40 AM 47.4°F8.6°C 45.2°F7.3°C 92% 2.3 mph ESE3.7 kmh ESE 3.5 mph5.6 kmh 30.14 in1020.7 mb - 0.00 in0.0 mm 0.14 in3.6 mm
09:35 AM 47.4°F8.6°C 45.4°F7.4°C 93% 1.2 mph SE1.9 kmh SE 3.5 mph5.6 kmh 30.14 in1020.7 mb - 0.00 in0.0 mm 0.14 in3.6 mm
09:30 AM 46.9°F8.3°C 44.7°F7.1°C 92% 1.2 mph ESE1.9 kmh ESE 1.2 mph1.9 kmh 30.13 in1020.3 mb - 0.01 in0.3 mm 0.14 in3.6 mm
09:25 AM 46.8°F8.2°C 44.6°F7.0°C 92% 1.2 mph SE1.9 kmh SE 2.3 mph3.7 kmh 30.14 in1020.7 mb - 0.01 in0.3 mm 0.14 in3.6 mm
09:20 AM 46.8°F8.2°C 44.6°F7.0°C 92% 1.2 mph SE1.9 kmh SE 3.5 mph5.6 kmh 30.14 in1020.7 mb - 0.01 in0.3 mm 0.14 in3.6 mm
09:15 AM 46.7°F8.2°C 44.5°F6.9°C 92% 1.2 mph ESE1.9 kmh ESE 3.5 mph5.6 kmh 30.14 in1020.7 mb - 0.01 in0.3 mm 0.14 in3.6 mm
09:10 AM 46.7°F8.2°C 44.5°F6.9°C 92% 2.3 mph ESE3.7 kmh ESE 3.5 mph5.6 kmh 30.14 in1020.7 mb - 0.01 in0.3 mm 0.14 in3.6 mm
09:00 AM 46.6°F8.1°C 44.4°F6.9°C 92% 1.2 mph ESE1.9 kmh ESE 2.3 mph3.7 kmh 30.14 in1020.7 mb - 0.01 in0.3 mm 0.14 in3.6 mm
08:55 AM 46.7°F8.2°C 44.5°F6.9°C 92% 1.2 mph ESE1.9 kmh ESE 1.2 mph1.9 kmh 30.14 in1020.7 mb - 0.02 in0.5 mm 0.14 in3.6 mm
08:50 AM 46.6°F8.1°C 44.4°F6.9°C 92% 2.3 mph ESE3.7 kmh ESE 3.5 mph5.6 kmh 30.14 in1020.7 mb - 0.02 in0.5 mm 0.14 in3.6 mm
08:45 AM 46.6°F8.1°C 44.4°F6.9°C 92% 2.3 mph ESE3.7 kmh ESE 3.5 mph5.6 kmh 30.14 in1020.7 mb - 0.03 in0.8 mm 0.14 in3.6 mm
08:40 AM 46.5°F8.1°C 44.3°F6.8°C 92% 1.2 mph E1.9 kmh E 1.2 mph1.9 kmh 30.14 in1020.7 mb - 0.03 in0.8 mm 0.14 in3.6 mm
08:35 AM 46.5°F8.1°C 44.3°F6.8°C 92% 2.3 mph ESE3.7 kmh ESE 3.5 mph5.6 kmh 30.13 in1020.3 mb - 0.03 in0.8 mm 0.14 in3.6 mm
08:30 AM 46.4°F8.0°C 44.2°F6.8°C 92% 1.2 mph ESE1.9 kmh ESE 2.3 mph3.7 kmh 30.13 in1020.3 mb - 0.03 in0.8 mm 0.14 in3.6 mm
08:25 AM 46.4°F8.0°C 44.2°F6.8°C 92% 2.3 mph ESE3.7 kmh ESE 3.5 mph5.6 kmh 30.13 in1020.3 mb - 0.03 in0.8 mm 0.13 in3.3 mm
08:20 AM 46.4°F8.0°C 44.2°F6.8°C 92% 1.2 mph SE1.9 kmh SE 2.3 mph3.7 kmh 30.13 in1020.3 mb - 0.03 in0.8 mm 0.13 in3.3 mm
08:15 AM 46.4°F8.0°C 44.2°F6.8°C 92% 1.2 mph ESE1.9 kmh ESE 2.3 mph3.7 kmh 30.13 in1020.3 mb - 0.04 in1.0 mm 0.13 in3.3 mm
08:10 AM 46.4°F8.0°C 44.2°F6.8°C 92% 1.2 mph E1.9 kmh E 1.2 mph1.9 kmh 30.13 in1020.3 mb - 0.04 in1.0 mm 0.13 in3.3 mm
08:00 AM 46.4°F8.0°C 44.2°F6.8°C 92% 2.3 mph ESE3.7 kmh ESE 3.5 mph5.6 kmh 30.12 in1020.0 mb - 0.05 in1.3 mm 0.13 in3.3 mm
07:55 AM 46.3°F7.9°C 44.1°F6.7°C 92% Calm Calm -- 30.13 in1020.3 mb - 0.04 in1.0 mm 0.12 in3.0 mm
07:50 AM 46.3°F7.9°C 44.1°F6.7°C 92% 1.2 mph ESE1.9 kmh ESE 2.3 mph3.7 kmh 30.12 in1020.0 mb - 0.05 in1.3 mm 0.12 in3.0 mm
07:45 AM 46.2°F7.9°C 44.0°F6.7°C 92% Calm Calm -- 30.13 in1020.3 mb - 0.05 in1.3 mm 0.12 in3.0 mm
07:40 AM 46.2°F7.9°C 44.0°F6.7°C 92% Calm Calm 3.5 mph5.6 kmh 30.13 in1020.3 mb - 0.04 in1.0 mm 0.11 in2.8 mm
07:35 AM 46.1°F7.8°C 43.9°F6.6°C 92% 1.2 mph NE1.9 kmh NE 2.3 mph3.7 kmh 30.12 in1020.0 mb - 0.04 in1.0 mm 0.11 in2.8 mm
07:30 AM 46.1°F7.8°C 43.9°F6.6°C 92% 1.2 mph NE1.9 kmh NE 3.5 mph5.6 kmh 30.12 in1020.0 mb - 0.05 in1.3 mm 0.11 in2.8 mm
07:25 AM 46.1°F7.8°C 43.9°F6.6°C 92% Calm Calm -- 30.12 in1020.0 mb - 0.04 in1.0 mm 0.10 in2.5 mm
07:20 AM 46.1°F7.8°C 43.9°F6.6°C 92% Calm Calm -- 30.12 in1020.0 mb - 0.05 in1.3 mm 0.10 in2.5 mm
07:15 AM 46.1°F7.8°C 43.6°F6.4°C 91% 2.3 mph ENE3.7 kmh ENE 2.3 mph3.7 kmh 30.12 in1020.0 mb - 0.04 in1.0 mm 0.09 in2.3 mm
07:10 AM 46.1°F7.8°C 43.9°F6.6°C 92% 1.2 mph NE1.9 kmh NE 1.2 mph1.9 kmh 30.11 in1019.6 mb - 0.05 in1.3 mm 0.09 in2.3 mm
07:00 AM 46.1°F7.8°C 43.6°F6.4°C 91% Calm Calm -- 30.11 in1019.6 mb - 0.05 in1.3 mm 0.08 in2.0 mm
06:55 AM 46.1°F7.8°C 43.6°F6.4°C 91% 2.3 mph NNE3.7 kmh NNE 2.3 mph3.7 kmh 30.10 in1019.3 mb - 0.05 in1.3 mm 0.08 in2.0 mm
06:50 AM 46.1°F7.8°C 43.6°F6.4°C 91% 2.3 mph NE3.7 kmh NE 3.5 mph5.6 kmh 30.10 in1019.3 mb - 0.04 in1.0 mm 0.07 in1.8 mm
06:45 AM 46.2°F7.9°C 43.7°F6.5°C 91% 2.3 mph N3.7 kmh N 3.5 mph5.6 kmh 30.10 in1019.3 mb - 0.04 in1.0 mm 0.07 in1.8 mm
06:40 AM 46.3°F7.9°C 43.8°F6.6°C 91% 2.3 mph N3.7 kmh N 3.5 mph5.6 kmh 30.09 in1019.0 mb - 0.04 in1.0 mm 0.07 in1.8 mm
06:35 AM 46.4°F8.0°C 43.9°F6.6°C 91% 3.5 mph NNE5.6 kmh NNE 3.5 mph5.6 kmh 30.09 in1019.0 mb - 0.04 in1.0 mm 0.07 in1.8 mm
06:30 AM 46.4°F8.0°C 43.9°F6.6°C 91% 2.3 mph N3.7 kmh N 3.5 mph5.6 kmh 30.09 in1019.0 mb - 0.03 in0.8 mm 0.06 in1.5 mm
06:25 AM 46.4°F8.0°C 43.9°F6.6°C 91% Calm Calm 2.3 mph3.7 kmh 30.08 in1018.6 mb - 0.04 in1.0 mm 0.06 in1.5 mm
06:20 AM 46.4°F8.0°C 43.9°F6.6°C 91% Calm Calm -- 30.08 in1018.6 mb - 0.03 in0.8 mm 0.05 in1.3 mm
06:15 AM 46.4°F8.0°C 43.9°F6.6°C 91% Calm Calm -- 30.09 in1019.0 mb - 0.04 in1.0 mm 0.05 in1.3 mm
06:10 AM 46.4°F8.0°C 43.9°F6.6°C 91% 1.2 mph N1.9 kmh N 2.3 mph3.7 kmh 30.09 in1019.0 mb - 0.03 in0.8 mm 0.04 in1.0 mm
06:00 AM 46.4°F8.0°C 43.6°F6.4°C 90% Calm Calm -- 30.08 in1018.6 mb - 0.02 in0.5 mm 0.03 in0.8 mm
05:55 AM 46.4°F8.0°C 43.6°F6.4°C 90% Calm Calm -- 30.08 in1018.6 mb - 0.02 in0.5 mm 0.03 in0.8 mm
05:50 AM 46.4°F8.0°C 43.7°F6.5°C 90% Calm Calm -- 30.07 in1018.3 mb - 0.02 in0.5 mm 0.03 in0.8 mm
05:45 AM 46.5°F8.1°C 43.7°F6.5°C 90% Calm Calm -- 30.07 in1018.3 mb - 0.03 in0.8 mm 0.03 in0.8 mm
05:40 AM 46.5°F8.1°C 43.7°F6.5°C 90% Calm Calm -- 30.07 in1018.3 mb - 0.03 in0.8 mm 0.03 in0.8 mm
05:35 AM 46.5°F8.1°C 43.7°F6.5°C 90% 1.2 mph NE1.9 kmh NE 2.3 mph3.7 kmh 30.06 in1017.9 mb - 0.03 in0.8 mm 0.03 in0.8 mm
05:30 AM 46.6°F8.1°C 43.8°F6.6°C 90% 2.3 mph NE3.7 kmh NE 3.5 mph5.6 kmh 30.06 in1017.9 mb - 0.03 in0.8 mm 0.03 in0.8 mm
05:25 AM 46.5°F8.1°C 43.5°F6.4°C 89% 2.3 mph NE3.7 kmh NE 4.6 mph7.4 kmh 30.06 in1017.9 mb - 0.02 in0.5 mm 0.02 in0.5 mm
05:20 AM 46.5°F8.1°C 43.5°F6.4°C 89% Calm Calm -- 30.08 in1018.6 mb - 0.02 in0.5 mm 0.02 in0.5 mm
05:15 AM 46.5°F8.1°C 43.5°F6.4°C 89% 1.2 mph NNE1.9 kmh NNE 2.3 mph3.7 kmh 30.08 in1018.6 mb - 0.01 in0.3 mm 0.01 in0.3 mm
05:10 AM 46.6°F8.1°C 43.5°F6.4°C 89% 1.2 mph NNE1.9 kmh NNE -- 30.07 in1018.3 mb - 0.01 in0.3 mm 0.01 in0.3 mm
05:00 AM 46.8°F8.2°C 43.4°F6.3°C 88% 1.2 mph N1.9 kmh N 3.5 mph5.6 kmh 30.08 in1018.6 mb - 0.01 in0.3 mm 0.01 in0.3 mm
04:55 AM 46.8°F8.2°C 43.5°F6.4°C 88% 1.2 mph N1.9 kmh N 3.5 mph5.6 kmh 30.09 in1019.0 mb - 0.01 in0.3 mm 0.01 in0.3 mm
04:50 AM 46.9°F8.3°C 43.5°F6.4°C 88% Calm Calm -- 30.09 in1019.0 mb - 0.01 in0.3 mm 0.01 in0.3 mm
04:45 AM 46.9°F8.3°C 43.5°F6.4°C 88% 2.3 mph NW3.7 kmh NW 2.3 mph3.7 kmh 30.09 in1019.0 mb - 0.00 in0.0 mm 0.00 in0.0 mm
04:40 AM 46.9°F8.3°C 43.5°F6.4°C 88% 2.3 mph WNW3.7 kmh WNW 2.3 mph3.7 kmh 30.08 in1018.6 mb - 0.00 in0.0 mm 0.00 in0.0 mm
04:35 AM 46.9°F8.3°C 43.2°F6.2°C 87% 1.2 mph NW1.9 kmh NW 2.3 mph3.7 kmh 30.06 in1017.9 mb - 0.00 in0.0 mm 0.00 in0.0 mm
04:30 AM 46.9°F8.3°C 43.2°F6.2°C 87% 1.2 mph NW1.9 kmh NW 2.3 mph3.7 kmh 30.05 in1017.6 mb - 0.00 in0.0 mm 0.00 in0.0 mm
04:25 AM 46.9°F8.3°C 43.2°F6.2°C 87% Calm Calm -- 30.05 in1017.6 mb - 0.00 in0.0 mm 0.00 in0.0 mm
04:20 AM 46.9°F8.3°C 43.2°F6.2°C 87% Calm Calm -- 30.06 in1017.9 mb - 0.00 in0.0 mm 0.00 in0.0 mm
04:15 AM 47.0°F8.3°C 43.3°F6.3°C 87% 1.2 mph WNW1.9 kmh WNW 1.2 mph1.9 kmh 30.05 in1017.6 mb - 0.00 in0.0 mm 0.00 in0.0 mm
04:10 AM 47.0°F8.3°C 43.0°F6.1°C 86% 2.3 mph WNW3.7 kmh WNW 2.3 mph3.7 kmh 30.06 in1017.9 mb - 0.00 in0.0 mm 0.00 in0.0 mm
04:00 AM 47.1°F8.4°C 43.1°F6.2°C 86% Calm Calm -- 30.06 in1017.9 mb - 0.00 in0.0 mm 0.00 in0.0 mm
03:55 AM 47.2°F8.4°C 42.9°F6.1°C 85% Calm Calm -- 30.06 in1017.9 mb - 0.00 in0.0 mm 0.00 in0.0 mm
03:50 AM 47.2°F8.4°C 42.9°F6.1°C 85% 2.3 mph WNW3.7 kmh WNW 3.5 mph5.6 kmh 30.07 in1018.3 mb - 0.00 in0.0 mm 0.00 in0.0 mm
03:45 AM 47.3°F8.5°C 43.0°F6.1°C 85% 3.5 mph NW5.6 kmh NW 3.5 mph5.6 kmh 30.08 in1018.6 mb - 0.00 in0.0 mm 0.00 in0.0 mm
03:40 AM 47.4°F8.6°C 42.8°F6.0°C 84% 2.3 mph WNW3.7 kmh WNW 3.5 mph5.6 kmh 30.07 in1018.3 mb - 0.00 in0.0 mm 0.00 in0.0 mm
03:35 AM 47.3°F8.5°C 42.7°F5.9°C 84% Calm Calm -- 30.07 in1018.3 mb - 0.00 in0.0 mm 0.00 in0.0 mm
03:30 AM 47.4°F8.6°C 42.8°F6.0°C 84% Calm Calm 3.5 mph5.6 kmh 30.06 in1017.9 mb - 0.00 in0.0 mm 0.00 in0.0 mm
03:25 AM 47.3°F8.5°C 42.7°F5.9°C 84% 2.3 mph SE3.7 kmh SE 3.5 mph5.6 kmh 30.07 in1018.3 mb - 0.00 in0.0 mm 0.00 in0.0 mm
03:20 AM 47.4°F8.6°C 42.8°F6.0°C 84% 1.2 mph SE1.9 kmh SE 2.3 mph3.7 kmh 30.07 in1018.3 mb - 0.00 in0.0 mm 0.00 in0.0 mm
03:15 AM 47.4°F8.6°C 42.8°F6.0°C 84% 1.2 mph ESE1.9 kmh ESE 3.5 mph5.6 kmh 30.07 in1018.3 mb - 0.00 in0.0 mm 0.00 in0.0 mm
03:10 AM 47.4°F8.6°C 42.8°F6.0°C 84% Calm Calm 3.5 mph5.6 kmh 30.07 in1018.3 mb - 0.00 in0.0 mm 0.00 in0.0 mm
03:00 AM 47.5°F8.6°C 42.9°F6.1°C 84% 2.3 mph E3.7 kmh E 3.5 mph5.6 kmh 30.08 in1018.6 mb - 0.00 in0.0 mm 0.00 in0.0 mm
02:55 AM 47.5°F8.6°C 42.6°F5.9°C 83% Calm Calm -- 30.09 in1019.0 mb - 0.00 in0.0 mm 0.00 in0.0 mm
02:50 AM 47.5°F8.6°C 42.6°F5.9°C 83% Calm Calm -- 30.09 in1019.0 mb - 0.00 in0.0 mm 0.00 in0.0 mm
02:45 AM 47.5°F8.6°C 42.6°F5.9°C 83% Calm Calm -- 30.09 in1019.0 mb - 0.00 in0.0 mm 0.00 in0.0 mm
02:40 AM 47.6°F8.7°C 42.7°F5.9°C 83% 1.2 mph N1.9 kmh N 3.5 mph5.6 kmh 30.10 in1019.3 mb - 0.00 in0.0 mm 0.00 in0.0 mm
02:35 AM 47.6°F8.7°C 42.7°F5.9°C 83% 1.2 mph N1.9 kmh N 2.3 mph3.7 kmh 30.09 in1019.0 mb - 0.00 in0.0 mm 0.00 in0.0 mm
02:30 AM 47.7°F8.7°C 42.5°F5.8°C 82% Calm Calm 1.2 mph1.9 kmh 30.09 in1019.0 mb - 0.00 in0.0 mm 0.00 in0.0 mm
02:25 AM 47.7°F8.7°C 42.5°F5.8°C 82% Calm Calm -- 30.10 in1019.3 mb - 0.00 in0.0 mm 0.00 in0.0 mm
02:20 AM 47.8°F8.8°C 42.6°F5.9°C 82% 2.3 mph NNE3.7 kmh NNE 3.5 mph5.6 kmh 30.10 in1019.3 mb - 0.00 in0.0 mm 0.00 in0.0 mm
02:15 AM 47.9°F8.8°C 42.3°F5.7°C 81% 2.3 mph N3.7 kmh N 3.5 mph5.6 kmh 30.11 in1019.6 mb - 0.00 in0.0 mm 0.00 in0.0 mm
02:10 AM 47.9°F8.8°C 42.4°F5.8°C 81% 3.5 mph NNW5.6 kmh NNW 4.6 mph7.4 kmh 30.11 in1019.6 mb - 0.00 in0.0 mm 0.00 in0.0 mm
02:00 AM 48.0°F8.9°C 42.2°F5.7°C 80% 2.3 mph N3.7 kmh N 3.5 mph5.6 kmh 30.11 in1019.6 mb - 0.00 in0.0 mm 0.00 in0.0 mm
01:55 AM 48.0°F8.9°C 42.2°F5.7°C 80% 2.3 mph NNW3.7 kmh NNW 3.5 mph5.6 kmh 30.12 in1020.0 mb - 0.00 in0.0 mm 0.00 in0.0 mm
01:50 AM 48.0°F8.9°C 42.1°F5.6°C 80% 2.3 mph N3.7 kmh N 3.5 mph5.6 kmh 30.11 in1019.6 mb - 0.00 in0.0 mm 0.00 in0.0 mm
01:45 AM 48.0°F8.9°C 42.1°F5.6°C 80% 3.5 mph N5.6 kmh N 3.5 mph5.6 kmh 30.11 in1019.6 mb - 0.00 in0.0 mm 0.00 in0.0 mm
01:40 AM 48.0°F8.9°C 42.4°F5.8°C 81% 2.3 mph N3.7 kmh N 3.5 mph5.6 kmh 30.12 in1020.0 mb - 0.00 in0.0 mm 0.00 in0.0 mm
01:35 AM 48.0°F8.9°C 42.4°F5.8°C 81% 2.3 mph N3.7 kmh N 4.6 mph7.4 kmh 30.12 in1020.0 mb - 0.00 in0.0 mm 0.00 in0.0 mm
01:30 AM 48.1°F8.9°C 42.5°F5.8°C 81% 2.3 mph N3.7 kmh N 3.5 mph5.6 kmh 30.12 in1020.0 mb - 0.00 in0.0 mm 0.00 in0.0 mm
01:25 AM 48.1°F8.9°C 42.5°F5.8°C 81% 2.3 mph N3.7 kmh N 3.5 mph5.6 kmh 30.11 in1019.6 mb - 0.00 in0.0 mm 0.00 in0.0 mm
01:20 AM 48.2°F9.0°C 42.6°F5.9°C 81% 4.6 mph NNE7.4 kmh NNE 6.9 mph11.1 kmh 30.11 in1019.6 mb - 0.00 in0.0 mm 0.00 in0.0 mm
01:15 AM 48.3°F9.1°C 42.7°F5.9°C 81% 4.6 mph N7.4 kmh N 4.6 mph7.4 kmh 30.12 in1020.0 mb - 0.00 in0.0 mm 0.00 in0.0 mm
01:10 AM 48.2°F9.0°C 42.6°F5.9°C 81% 3.5 mph N5.6 kmh N 8.1 mph13.0 kmh 30.12 in1020.0 mb - 0.00 in0.0 mm 0.00 in0.0 mm
01:00 AM 48.1°F8.9°C 42.5°F5.8°C 81% 5.8 mph N9.3 kmh N 9.2 mph14.8 kmh 30.14 in1020.7 mb - 0.00 in0.0 mm 0.00 in0.0 mm
12:55 AM 48.0°F8.9°C 42.7°F5.9°C 82% 5.8 mph N9.3 kmh N 9.2 mph14.8 kmh 30.14 in1020.7 mb - 0.00 in0.0 mm 0.00 in0.0 mm
12:50 AM 47.9°F8.8°C 42.9°F6.1°C 83% 3.5 mph N5.6 kmh N 8.1 mph13.0 kmh 30.14 in1020.7 mb - 0.00 in0.0 mm 0.00 in0.0 mm
12:45 AM 47.7°F8.7°C 43.1°F6.2°C 84% 2.3 mph NNW3.7 kmh NNW 3.5 mph5.6 kmh 30.14 in1020.7 mb - 0.00 in0.0 mm 0.00 in0.0 mm
12:40 AM 47.7°F8.7°C 43.4°F6.3°C 85% 3.5 mph NNW5.6 kmh NNW 10.4 mph16.7 kmh 30.13 in1020.3 mb - 0.00 in0.0 mm 0.00 in0.0 mm
12:35 AM 47.7°F8.7°C 43.7°F6.5°C 86% 2.3 mph N3.7 kmh N 3.5 mph5.6 kmh 30.13 in1020.3 mb - 0.00 in0.0 mm 0.00 in0.0 mm
12:30 AM 47.7°F8.7°C 43.7°F6.5°C 86% 2.3 mph N3.7 kmh N 5.8 mph9.3 kmh 30.13 in1020.3 mb - 0.00 in0.0 mm 0.00 in0.0 mm
12:25 AM 47.7°F8.7°C 44.0°F6.7°C 87% 1.2 mph NNW1.9 kmh NNW 3.5 mph5.6 kmh 30.13 in1020.3 mb - 0.00 in0.0 mm 0.00 in0.0 mm
12:20 AM 47.7°F8.7°C 44.1°F6.7°C 87% 4.6 mph N7.4 kmh N 4.6 mph7.4 kmh 30.12 in1020.0 mb - 0.00 in0.0 mm 0.00 in0.0 mm
12:15 AM 47.9°F8.8°C 44.2°F6.8°C 87% 3.5 mph N5.6 kmh N 3.5 mph5.6 kmh 30.13 in1020.3 mb - 0.00 in0.0 mm 0.00 in0.0 mm
12:10 AM 47.9°F8.8°C 44.5°F6.9°C 88% 2.3 mph NW3.7 kmh NW 4.6 mph7.4 kmh 30.13 in1020.3 mb - 0.00 in0.0 mm 0.00 in0.0 mm
12:00 AM 47.8°F8.8°C 44.7°F7.1°C 89% 2.3 mph N3.7 kmh N 3.5 mph5.6 kmh 30.12 in1020.0 mb - 0.00 in0.0 mm 0.00 in0.0 mm